Thunder radar more information blitzortung!


Radar de pluja more information rain snow radar


Visita la nostra xarxa de llocs de meteo:

Template documentation
and downloads

And another site



Extreme low temperature From: 13-12-2017 09:00 Until: 09:59 warning for: Extreme low temperature Level: Yellow info button

Pagina Historial Weather Underground text

Diari Resum Setembre 13, 2017 Unitats:  Mètric    Imperial   Tant
« Previous Dia
SegĂźent Dia »
Diari Setmana Mensual Anual Personalitzada
  Maxima: Minima: Media:
Temperatura: 29.2 °C 15.8 °C 23.7 °C
Punt de rosada: 16.4 °C 11.9 °C 14 °C
Humitat: 86 % 36 % 57 %
Wind Speed: 27.8 km/h 0.0 km/h 9.6 km/h
RĂ fegues de vent: 27.8 km/h - -
Vent:- - SW
Pression baro: 1021.9 hPa 1017.8 hPa -
Precipitacions: 0.0 mm    
Historical Graphs
 
 
Dades de taula per Setembre 13, 2017
Temps Temperatura Punt de rosada Pression baro Vent Wind Speed RĂ fegues de vent Humitat Rainfall Rate (Hourly)
00:00 16.7 °C 13.8 °C 1019.9 hPa Calm   1.6 km/h 83 % 0.0 mm
00:01 18.5 °C 14.0 °C 1019.9 hPa Calm     75 % 0.0 mm
00:10 16.6 °C 13.7 °C 1019.9 hPa Calm     83 % 0.0 mm
00:20 16.3 °C 13.4 °C 1019.9 hPa SSE 1.6 km/h 1.6 km/h 83 % 0.0 mm
00:30 16.2 °C 13.3 °C 1019.9 hPa Calm   1.6 km/h 83 % 0.0 mm
00:40 16.1 °C 13.4 °C 1019.9 hPa Calm     84 % 0.0 mm
00:50 16.0 °C 13.3 °C 1019.9 hPa Calm     84 % 0.0 mm
01:00 16.0 °C 13.3 °C 1019.9 hPa SW 1.6 km/h 1.6 km/h 84 % 0.0 mm
01:10 16.0 °C 13.3 °C 1019.9 hPa Calm   1.6 km/h 84 % 0.0 mm
01:20 16.0 °C 13.5 °C 1019.9 hPa Calm     85 % 0.0 mm
01:30 16.0 °C 13.5 °C 1019.9 hPa Calm     85 % 0.0 mm
01:40 15.8 °C 13.3 °C 1019.9 hPa Calm     85 % 0.0 mm
01:50 15.8 °C 13.3 °C 1019.9 hPa Calm     85 % 0.0 mm
02:00 15.9 °C 13.4 °C 1019.9 hPa Calm   3.2 km/h 85 % 0.0 mm
02:10 16.0 °C 13.5 °C 1019.9 hPa Calm   3.2 km/h 85 % 0.0 mm
02:20 16.1 °C 13.6 °C 1019.9 hPa WSW 1.6 km/h 3.2 km/h 85 % 0.0 mm
02:30 16.1 °C 13.6 °C 1018.8 hPa SW 3.2 km/h 4.8 km/h 85 % 0.0 mm
02:40 16.1 °C 13.6 °C 1019.9 hPa SW 3.2 km/h 3.2 km/h 85 % 0.0 mm
02:50 16.1 °C 13.6 °C 1019.9 hPa SW 1.6 km/h 4.8 km/h 85 % 0.0 mm
03:00 16.0 °C 13.7 °C 1019.9 hPa SW 1.6 km/h 3.2 km/h 86 % 0.0 mm
03:10 16.2 °C 13.8 °C 1019.9 hPa Calm   1.6 km/h 86 % 0.0 mm
03:20 16.2 °C 13.8 °C 1019.9 hPa Calm   1.6 km/h 86 % 0.0 mm
03:30 16.4 °C 14.1 °C 1020.9 hPa Calm     86 % 0.0 mm
03:40 17.0 °C 14.7 °C 1020.9 hPa NNW 1.6 km/h 3.2 km/h 86 % 0.0 mm
03:50 17.4 °C 14.5 °C 1020.9 hPa NNW 3.2 km/h 4.8 km/h 83 % 0.0 mm
04:00 18.1 °C 14.8 °C 1020.9 hPa NNW 1.6 km/h 4.8 km/h 81 % 0.0 mm
04:10 18.3 °C 14.6 °C 1020.9 hPa Calm   3.2 km/h 79 % 0.0 mm
04:20 18.4 °C 14.5 °C 1020.9 hPa WSW 1.6 km/h 3.2 km/h 78 % 0.0 mm
04:30 18.7 °C 14.8 °C 1020.9 hPa SW 3.2 km/h 4.8 km/h 78 % 0.0 mm
04:40 18.7 °C 14.8 °C 1021.9 hPa SW 3.2 km/h 4.8 km/h 78 % 0.0 mm
04:50 18.9 °C 15.0 °C 1021.9 hPa WSW 1.6 km/h 4.8 km/h 78 % 0.0 mm
05:00 19.5 °C 15.2 °C 1021.9 hPa WSW 1.6 km/h 3.2 km/h 76 % 0.0 mm
05:10 20.3 °C 15.5 °C 1021.9 hPa West 3.2 km/h 3.2 km/h 74 % 0.0 mm
05:20 21.2 °C 15.9 °C 1021.9 hPa Calm   4.8 km/h 72 % 0.0 mm
10:22 21.4 °C 15.5 °C 1021.9 hPa North 3.7 km/h 3.7 km/h 69 % 0.0 mm
10:23 21.5 °C 15.6 °C 1021.9 hPa North 2.6 km/h 2.6 km/h 69 % 0.0 mm
10:24 21.7 °C 15.8 °C 1021.9 hPa NW 1.9 km/h 2.3 km/h 69 % 0.0 mm
10:29 21.9 °C 15.5 °C 1021.9 hPa NNE 4.2 km/h 4.2 km/h 67 % 0.0 mm
10:34 22.3 °C 14.9 °C 1021.9 hPa NNE 5.6 km/h 5.6 km/h 63 % 0.0 mm
10:39 22.3 °C 14.9 °C 1021.9 hPa WSW 3.9 km/h 3.9 km/h 63 % 0.0 mm
10:44 22.5 °C 14.8 °C 1021.9 hPa SW 3.7 km/h 3.7 km/h 62 % 0.0 mm
10:49 23.0 °C 14.8 °C 1021.9 hPa NE 3.7 km/h 3.7 km/h 60 % 0.0 mm
10:54 23.3 °C 14.6 °C 1021.9 hPa South 5.8 km/h 5.8 km/h 58 % 0.0 mm
10:59 23.5 °C 14.8 °C 1021.9 hPa NE 5.6 km/h 5.6 km/h 58 % 0.0 mm
11:04 23.7 °C 14.9 °C 1021.9 hPa NNW 2.3 km/h 2.3 km/h 58 % 0.0 mm
11:09 23.7 °C 14.1 °C 1021.9 hPa East 7.4 km/h 7.4 km/h 55 % 0.0 mm
11:14 23.8 °C 14.2 °C 1021.9 hPa North 7.4 km/h 7.4 km/h 55 % 0.0 mm
11:19 23.8 °C 14.2 °C 1021.9 hPa ENE 6.1 km/h 6.1 km/h 55 % 0.0 mm
11:24 23.6 °C 13.4 °C 1021.9 hPa ESE 6.1 km/h 6.1 km/h 53 % 0.0 mm
11:29 23.9 °C 13.7 °C 1021.9 hPa WNW 3.7 km/h 3.7 km/h 53 % 0.0 mm
11:34 24.5 °C 14.3 °C 1021.9 hPa ESE 5.6 km/h 5.6 km/h 53 % 0.0 mm
11:39 24.7 °C 14.2 °C 1021.9 hPa East 3.7 km/h 3.9 km/h 52 % 0.0 mm
11:44 25.0 °C 14.4 °C 1021.9 hPa WSW 6.4 km/h 6.4 km/h 52 % 0.0 mm
11:49 25.1 °C 13.9 °C 1021.9 hPa SW 3.7 km/h 3.7 km/h 50 % 0.0 mm
11:54 24.9 °C 14.1 °C 1021.9 hPa West 11.1 km/h 11.1 km/h 51 % 0.0 mm
11:59 25.2 °C 13.4 °C 1021.9 hPa East 9.5 km/h 9.5 km/h 48 % 0.0 mm
12:04 24.8 °C 13.3 °C 1021.9 hPa South 3.7 km/h 3.7 km/h 49 % 0.0 mm
12:09 25.6 °C 13.4 °C 1021.9 hPa WSW 3.9 km/h 3.9 km/h 47 % 0.0 mm
12:14 25.7 °C 13.6 °C 1021.9 hPa South 6.1 km/h 6.1 km/h 47 % 0.0 mm
12:19 25.8 °C 13.6 °C 1021.9 hPa SW 13.0 km/h 13.0 km/h 47 % 0.0 mm
12:24 25.7 °C 13.6 °C 1021.9 hPa ENE 3.7 km/h 3.7 km/h 47 % 0.0 mm
12:29 26.4 °C 13.8 °C 1021.9 hPa West 3.7 km/h 3.7 km/h 46 % 0.0 mm
12:34 26.8 °C 14.6 °C 1021.9 hPa WSW 9.5 km/h 9.5 km/h 47 % 0.0 mm
12:39 27.1 °C 14.2 °C 1021.9 hPa WSW 11.1 km/h 11.1 km/h 45 % 0.0 mm
12:44 26.9 °C 13.9 °C 1021.9 hPa SSE 11.1 km/h 11.1 km/h 45 % 0.0 mm
12:49 26.8 °C 13.5 °C 1021.9 hPa SSE 13.0 km/h 13.0 km/h 44 % 0.0 mm
12:54 26.8 °C 13.9 °C 1021.9 hPa SW 9.3 km/h 9.3 km/h 45 % 0.0 mm
12:59 27.2 °C 13.9 °C 1021.9 hPa SW 7.4 km/h 7.4 km/h 44 % 0.0 mm
13:04 27.1 °C 13.4 °C 1021.9 hPa West 11.1 km/h 11.1 km/h 43 % 0.0 mm
13:09 27.5 °C 13.4 °C 1021.9 hPa SSW 7.4 km/h 7.4 km/h 42 % 0.0 mm
13:14 27.9 °C 14.2 °C 1021.9 hPa West 9.3 km/h 9.3 km/h 43 % 0.0 mm
13:19 28.0 °C 14.3 °C 1021.9 hPa West 9.3 km/h 9.3 km/h 43 % 0.0 mm
13:24 27.9 °C 13.8 °C 1020.9 hPa WSW 5.6 km/h 5.6 km/h 42 % 0.0 mm
13:34 28.3 °C 13.8 °C 1020.9 hPa West 3.2 km/h 3.2 km/h 41 % 0.0 mm
13:39 28.7 °C 13.8 °C 1020.9 hPa WSW 9.7 km/h 9.7 km/h 40 % 0.0 mm
13:44 28.6 °C 14.1 °C 1020.9 hPa WSW 6.4 km/h 6.4 km/h 41 % 0.0 mm
13:49 29.0 °C 13.7 °C 1020.9 hPa SSW 5.6 km/h 5.6 km/h 39 % 0.0 mm
13:54 29.0 °C 13.2 °C 1020.9 hPa West 9.3 km/h 9.3 km/h 38 % 0.0 mm
13:59 29.2 °C 13.4 °C 1020.9 hPa SW 11.1 km/h 11.1 km/h 38 % 0.0 mm
14:04 29.1 °C 13.3 °C 1020.9 hPa West 16.7 km/h 16.7 km/h 38 % 0.0 mm
14:09 28.9 °C 13.2 °C 1020.9 hPa SSW 16.7 km/h 16.7 km/h 38 % 0.0 mm
14:14 29.1 °C 12.9 °C 1020.9 hPa SW 8.7 km/h 8.7 km/h 37 % 0.0 mm
14:19 28.7 °C 13.0 °C 1020.9 hPa SSW 11.1 km/h 11.1 km/h 38 % 0.0 mm
14:24 28.7 °C 12.6 °C 1019.9 hPa SW 11.1 km/h 11.1 km/h 37 % 0.0 mm
14:29 29.1 °C 12.9 °C 1019.9 hPa SW 15.8 km/h 15.8 km/h 37 % 0.0 mm
14:34 28.8 °C 12.7 °C 1019.9 hPa SW 9.3 km/h 9.3 km/h 37 % 0.0 mm
14:39 28.4 °C 11.9 °C 1019.9 hPa SW 18.5 km/h 18.5 km/h 36 % 0.0 mm
14:44 28.6 °C 12.1 °C 1019.9 hPa South 13.0 km/h 13.0 km/h 36 % 0.0 mm
14:49 28.6 °C 12.5 °C 1019.9 hPa WSW 11.9 km/h 11.9 km/h 37 % 0.0 mm
14:54 28.4 °C 11.9 °C 1019.9 hPa South 9.7 km/h 9.7 km/h 36 % 0.0 mm
14:59 28.5 °C 12.0 °C 1019.9 hPa SW 16.7 km/h 16.7 km/h 36 % 0.0 mm
15:04 28.4 °C 11.9 °C 1019.9 hPa SW 20.4 km/h 20.4 km/h 36 % 0.0 mm
15:09 28.7 °C 12.6 °C 1018.8 hPa WSW 10.3 km/h 10.3 km/h 37 % 0.0 mm
15:14 28.8 °C 12.7 °C 1018.8 hPa SSE 5.6 km/h 5.6 km/h 37 % 0.0 mm
15:19 28.6 °C 12.5 °C 1018.8 hPa WSW 14.8 km/h 14.8 km/h 37 % 0.0 mm
15:24 28.8 °C 12.7 °C 1019.9 hPa South 14.8 km/h 14.8 km/h 37 % 0.0 mm
15:29 28.7 °C 12.6 °C 1019.9 hPa SSE 11.1 km/h 11.1 km/h 37 % 0.0 mm
15:34 28.9 °C 12.7 °C 1019.9 hPa SSW 11.1 km/h 11.1 km/h 37 % 0.0 mm
15:39 28.7 °C 13.0 °C 1019.9 hPa SW 20.4 km/h 20.4 km/h 38 % 0.0 mm
15:44 28.7 °C 13.0 °C 1019.9 hPa SW 22.2 km/h 22.2 km/h 38 % 0.0 mm
15:49 28.6 °C 12.9 °C 1019.9 hPa South 14.8 km/h 14.8 km/h 38 % 0.0 mm
15:54 28.4 °C 13.1 °C 1019.9 hPa SW 13.0 km/h 13.0 km/h 39 % 0.0 mm
15:59 28.5 °C 12.8 °C 1019.9 hPa SSE 14.8 km/h 14.8 km/h 38 % 0.0 mm
16:04 28.4 °C 13.1 °C 1019.9 hPa SSW 13.0 km/h 13.0 km/h 39 % 0.0 mm
16:09 28.2 °C 12.6 °C 1019.9 hPa WSW 13.0 km/h 13.0 km/h 38 % 0.0 mm
16:14 28.3 °C 12.6 °C 1019.9 hPa SSW 16.7 km/h 16.7 km/h 38 % 0.0 mm
16:19 28.2 °C 12.9 °C 1019.9 hPa South 14.8 km/h 14.8 km/h 39 % 0.0 mm
16:24 28.4 °C 13.1 °C 1018.8 hPa SW 11.4 km/h 11.4 km/h 39 % 0.0 mm
16:29 28.4 °C 13.1 °C 1018.8 hPa WSW 14.8 km/h 14.8 km/h 39 % 0.0 mm
16:34 28.2 °C 13.3 °C 1018.8 hPa SSW 14.8 km/h 14.8 km/h 40 % 0.0 mm
16:39 28.2 °C 13.3 °C 1018.8 hPa SW 7.4 km/h 7.4 km/h 40 % 0.0 mm
16:44 28.7 °C 13.8 °C 1018.8 hPa SW 11.1 km/h 11.1 km/h 40 % 0.0 mm
16:49 28.2 °C 13.7 °C 1018.8 hPa South 11.1 km/h 11.1 km/h 41 % 0.0 mm
16:54 27.9 °C 13.4 °C 1018.8 hPa SW 18.5 km/h 18.5 km/h 41 % 0.0 mm
16:59 27.9 °C 13.4 °C 1018.8 hPa SW 13.7 km/h 13.7 km/h 41 % 0.0 mm
17:04 27.9 °C 13.4 °C 1018.8 hPa SW 16.7 km/h 16.7 km/h 41 % 0.0 mm
17:09 27.9 °C 13.8 °C 1018.8 hPa WSW 24.1 km/h 24.1 km/h 42 % 0.0 mm
17:14 27.7 °C 13.6 °C 1018.8 hPa WSW 13.0 km/h 13.0 km/h 42 % 0.0 mm
17:19 27.6 °C 13.6 °C 1018.8 hPa South 14.8 km/h 14.8 km/h 42 % 0.0 mm
17:24 27.7 °C 13.6 °C 1017.8 hPa SW 16.7 km/h 16.7 km/h 42 % 0.0 mm
17:29 27.2 °C 13.2 °C 1017.8 hPa SSW 20.4 km/h 20.4 km/h 42 % 0.0 mm
17:34 27.2 °C 13.6 °C 1017.8 hPa WSW 18.5 km/h 18.5 km/h 43 % 0.0 mm
17:39 27.2 °C 13.6 °C 1017.8 hPa South 18.5 km/h 18.5 km/h 43 % 0.0 mm
17:44 27.2 °C 13.6 °C 1017.8 hPa SW 22.2 km/h 22.2 km/h 43 % 0.0 mm
17:49 26.9 °C 13.3 °C 1017.8 hPa SSW 24.1 km/h 24.1 km/h 43 % 0.0 mm
17:54 26.8 °C 13.2 °C 1017.8 hPa SW 16.7 km/h 16.7 km/h 43 % 0.0 mm
17:59 26.7 °C 13.1 °C 1017.8 hPa SSE 14.8 km/h 14.8 km/h 43 % 0.0 mm
18:04 26.5 °C 12.9 °C 1017.8 hPa South 20.9 km/h 20.9 km/h 43 % 0.0 mm
18:09 26.6 °C 13.0 °C 1017.8 hPa SW 22.2 km/h 22.2 km/h 43 % 0.0 mm
18:14 26.4 °C 12.4 °C 1017.8 hPa SW 16.7 km/h 16.7 km/h 42 % 0.0 mm
18:19 26.4 °C 12.4 °C 1017.8 hPa SSW 13.0 km/h 13.0 km/h 42 % 0.0 mm
18:24 26.1 °C 12.6 °C 1017.8 hPa WSW 18.5 km/h 18.5 km/h 43 % 0.0 mm
18:29 26.0 °C 12.4 °C 1017.8 hPa SW 16.7 km/h 16.7 km/h 43 % 0.0 mm
18:34 25.8 °C 12.3 °C 1017.8 hPa South 18.5 km/h 18.5 km/h 43 % 0.0 mm
18:39 25.9 °C 12.3 °C 1017.8 hPa West 14.0 km/h 14.0 km/h 43 % 0.0 mm
18:44 25.8 °C 12.3 °C 1017.8 hPa SSW 16.7 km/h 16.7 km/h 43 % 0.0 mm
18:49 25.7 °C 12.6 °C 1017.8 hPa SW 14.8 km/h 14.8 km/h 44 % 0.0 mm
18:54 25.5 °C 12.3 °C 1017.8 hPa WSW 13.0 km/h 13.0 km/h 44 % 0.0 mm
18:59 25.4 °C 12.6 °C 1017.8 hPa SW 18.5 km/h 18.5 km/h 45 % 0.0 mm
19:04 25.2 °C 12.8 °C 1017.8 hPa WSW 27.8 km/h 27.8 km/h 46 % 0.0 mm
19:09 24.9 °C 13.1 °C 1017.8 hPa SW 18.5 km/h 18.5 km/h 48 % 0.0 mm
19:14 24.6 °C 13.2 °C 1017.8 hPa SW 9.5 km/h 13.0 km/h 49 % 0.0 mm
19:19 24.5 °C 13.1 °C 1017.8 hPa SW 16.7 km/h 16.7 km/h 49 % 0.0 mm
19:24 24.5 °C 13.4 °C 1017.8 hPa WSW 14.8 km/h 14.8 km/h 50 % 0.0 mm
19:29 24.2 °C 13.7 °C 1017.8 hPa WSW 20.4 km/h 20.4 km/h 52 % 0.0 mm
19:34 24.0 °C 13.8 °C 1017.8 hPa SSE 18.5 km/h 18.5 km/h 53 % 0.0 mm
19:39 23.9 °C 14.0 °C 1017.8 hPa SW 20.4 km/h 20.4 km/h 54 % 0.0 mm
19:44 23.7 °C 14.1 °C 1017.8 hPa West 18.5 km/h 18.5 km/h 55 % 0.0 mm
19:49 23.6 °C 14.1 °C 1017.8 hPa WSW 22.2 km/h 22.2 km/h 55 % 0.0 mm
19:54 23.5 °C 13.9 °C 1017.8 hPa SW 13.0 km/h 13.0 km/h 55 % 0.0 mm
19:59 23.2 °C 14.5 °C 1017.8 hPa SW 20.4 km/h 20.4 km/h 58 % 0.0 mm
20:04 23.1 °C 14.4 °C 1017.8 hPa WSW 13.0 km/h 13.0 km/h 58 % 0.0 mm
20:09 23.0 °C 14.3 °C 1017.8 hPa SW 11.1 km/h 11.1 km/h 58 % 0.0 mm
20:14 22.9 °C 14.4 °C 1017.8 hPa SSW 16.7 km/h 16.7 km/h 59 % 0.0 mm
20:19 22.8 °C 14.4 °C 1017.8 hPa SSW 14.8 km/h 14.8 km/h 59 % 0.0 mm
20:24 22.7 °C 14.3 °C 1017.8 hPa SSW 16.7 km/h 16.7 km/h 59 % 0.0 mm
20:29 22.6 °C 14.2 °C 1017.8 hPa SW 9.7 km/h 10.0 km/h 59 % 0.0 mm
20:34 22.5 °C 14.3 °C 1017.8 hPa SW 11.1 km/h 11.1 km/h 60 % 0.0 mm
20:39 22.4 °C 14.3 °C 1017.8 hPa WSW 14.8 km/h 14.8 km/h 60 % 0.0 mm
20:44 22.4 °C 14.5 °C 1017.8 hPa WSW 13.0 km/h 13.0 km/h 61 % 0.0 mm
20:49 22.3 °C 14.4 °C 1017.8 hPa WSW 14.8 km/h 14.8 km/h 61 % 0.0 mm
20:54 22.2 °C 14.3 °C 1018.8 hPa SSW 11.1 km/h 11.1 km/h 61 % 0.0 mm
20:59 22.1 °C 14.5 °C 1018.8 hPa SW 16.7 km/h 16.7 km/h 62 % 0.0 mm
21:04 22.1 °C 14.5 °C 1018.8 hPa SW 14.8 km/h 14.8 km/h 62 % 0.0 mm
21:09 22.0 °C 14.4 °C 1018.8 hPa SW 9.3 km/h 9.3 km/h 62 % 0.0 mm
21:14 21.9 °C 14.6 °C 1018.8 hPa SW 14.0 km/h 14.0 km/h 63 % 0.0 mm
21:19 21.8 °C 14.7 °C 1018.8 hPa SW 9.3 km/h 9.3 km/h 64 % 0.0 mm
21:24 21.8 °C 14.9 °C 1018.8 hPa SW 16.7 km/h 16.7 km/h 65 % 0.0 mm
21:29 21.7 °C 14.8 °C 1018.8 hPa SW 9.3 km/h 9.3 km/h 65 % 0.0 mm
21:34 21.7 °C 15.1 °C 1018.8 hPa SW 6.1 km/h 6.1 km/h 66 % 0.0 mm
21:39 21.6 °C 15.0 °C 1018.8 hPa SW 7.4 km/h 7.4 km/h 66 % 0.0 mm
21:44 21.5 °C 14.9 °C 1018.8 hPa SW 7.4 km/h 7.4 km/h 66 % 0.0 mm
21:49 21.5 °C 15.1 °C 1018.8 hPa SSW 11.1 km/h 11.1 km/h 67 % 0.0 mm
21:54 21.4 °C 15.2 °C 1018.8 hPa SW 11.1 km/h 11.1 km/h 68 % 0.0 mm
21:59 21.4 °C 15.5 °C 1018.8 hPa SW 7.4 km/h 7.4 km/h 69 % 0.0 mm
22:04 21.4 °C 15.5 °C 1018.8 hPa SSW 9.3 km/h 9.3 km/h 69 % 0.0 mm
22:09 21.3 °C 15.6 °C 1018.8 hPa SSW 9.3 km/h 9.3 km/h 70 % 0.0 mm
22:14 21.2 °C 15.7 °C 1018.8 hPa SW 7.4 km/h 7.4 km/h 71 % 0.0 mm
22:19 21.3 °C 15.8 °C 1018.8 hPa WSW 9.3 km/h 9.3 km/h 71 % 0.0 mm
22:24 21.2 °C 15.9 °C 1018.8 hPa WSW 7.4 km/h 7.4 km/h 72 % 0.0 mm
22:29 21.2 °C 15.9 °C 1018.8 hPa SW 7.4 km/h 7.4 km/h 72 % 0.0 mm
22:34 21.1 °C 15.8 °C 1018.8 hPa SSW 7.4 km/h 7.4 km/h 72 % 0.0 mm
22:39 21.1 °C 15.8 °C 1018.8 hPa SW 7.4 km/h 7.4 km/h 72 % 0.0 mm
22:44 21.1 °C 16.1 °C 1018.8 hPa WSW 5.8 km/h 5.8 km/h 73 % 0.0 mm
22:49 21.1 °C 16.1 °C 1018.8 hPa West 9.3 km/h 9.3 km/h 73 % 0.0 mm
22:54 21.0 °C 16.0 °C 1018.8 hPa WSW 5.8 km/h 5.8 km/h 73 % 0.0 mm
22:59 21.0 °C 16.0 °C 1018.8 hPa SW 5.6 km/h 5.6 km/h 73 % 0.0 mm
23:04 21.0 °C 16.2 °C 1018.8 hPa West 3.7 km/h 3.7 km/h 74 % 0.0 mm
23:09 21.0 °C 16.2 °C 1018.8 hPa WSW 6.4 km/h 6.4 km/h 74 % 0.0 mm
23:14 21.0 °C 16.2 °C 1018.8 hPa WSW 3.7 km/h 3.7 km/h 74 % 0.0 mm
23:19 20.9 °C 16.1 °C 1018.8 hPa WSW 5.3 km/h 5.3 km/h 74 % 0.0 mm
23:24 20.9 °C 16.1 °C 1018.8 hPa West 5.6 km/h 5.6 km/h 74 % 0.0 mm
23:29 20.8 °C 16.2 °C 1018.8 hPa SW 3.7 km/h 3.7 km/h 75 % 0.0 mm
23:34 20.8 °C 16.2 °C 1018.8 hPa WSW 7.4 km/h 7.4 km/h 75 % 0.0 mm
23:39 20.7 °C 16.3 °C 1018.8 hPa SSW 3.9 km/h 3.9 km/h 76 % 0.0 mm
23:44 20.7 °C 16.3 °C 1018.8 hPa West 7.4 km/h 7.4 km/h 76 % 0.0 mm
23:49 20.6 °C 16.4 °C 1018.8 hPa WSW 5.0 km/h 5.0 km/h 77 % 0.0 mm
23:54 20.6 °C 16.2 °C 1017.8 hPa WSW 3.7 km/h 3.7 km/h 76 % 0.0 mm
23:59 20.6 °C 16.4 °C 1017.8 hPa WSW 5.6 km/h 5.6 km/h 77 % 0.0 mm
Meteo Sesrovires
Elogis d' Weather Underground - 3.5 mb

Guio original per  Jim McMurry - jmcmurry@mwt.net Adaptat per a la plantilla per  Wim van der Kuil - Leuven-Template.eu

Trobareu la nostra informacio del temps tambe a:

Weather Underground

AWEKAS